Latest Coastal Weather Observations for Friendly Beaches

IDT60701

Issued at 5:52 am EDT Sunday 2 October 2016 (issued every 10 minutes, with the page automatically refreshed every 10 minutes)

About coastal observations | Map of coastal stations | Coastal observations for TAS | Marine services | Other Formats
Station Details ID: 092114 Name: FRIENDLY BEACHES Lat: -42.00 Lon: 148.28 Height: 55.0 m
Data from the previous 72 hours. | See also: Recent months at Friendly Beaches
Date/Time
EDT
Temp
°C
Wind Pressure Rain since
9am
mm
Weather Cloud Vis
km
Sea
Height
m
Swell
Dir  Spd
kts
Gust
kts
hPa Trend Height
m
Period
s
Dir
02/05:30am 8.5 CALM 0 0 1001.9 - 0.0 - - - - - - -
02/05:00am 8.8 WNW 2 5 1001.4 - 0.0 - - - - - - -
02/04:30am 9.1 W 5 9 1000.9 - 0.0 - - - - - - -
02/04:00am 9.4 WSW 5 7 1000.9 - 0.0 - - - - - - -
02/03:30am 9.1 S 5 6 1000.6 - 0.0 - - - - - - -
02/03:00am 10.3 WSW 3 5 1000.3 - 0.0 - - - - - - -
02/01:30am 10.9 WNW 7 11 1000.0 - 0.0 - - - - - - -
02/01:00am 11.1 WNW 8 15 999.7 - 0.0 - - - - - - -
02/12:30am 11.4 W 12 18 999.1 - 0.0 - - - - - - -
02/12:00am 11.8 W 13 23 998.4 - 0.0 - - - - - - -
 
Date/Time
EDT
Temp
°C
Wind Pressure Rain since
9am
mm
Weather Cloud Vis
km
Sea
Height
m
Swell
Dir  Spd
kts
Gust
kts
hPa Trend Height
m
Period
s
Dir
01/11:30pm 11.9 W 10 17 998.1 - 0.0 - - - - - - -
01/11:00pm 12.1 W 9 16 997.8 - 0.0 - - - - - - -
01/10:30pm 11.9 WNW 6 11 998.0 - 0.0 - - - - - - -
01/10:00pm 11.6 WSW 4 8 998.1 - 0.0 - - - - - - -
01/09:30pm 12.5 WNW 5 13 997.9 - 0.0 - - - - - - -
01/09:00pm 12.6 W 5 11 997.7 - 0.0 - - - - - - -
01/08:30pm 13.0 WNW 7 12 997.1 - 0.0 - - - - - - -
01/08:00pm 13.1 W 8 13 996.4 - 0.0 - - - - - - -
01/07:30pm 13.5 WNW 7 13 995.9 - 0.0 - - - - - - -
01/07:00pm 13.7 WNW 6 13 995.2 - 0.0 - - - - - - -
01/06:30pm 13.7 WNW 4 9 994.6 - 0.0 - - - - - - -
01/06:00pm 14.5 NW 8 15 994.0 - 0.0 - - - - - - -
01/05:30pm 15.5 WNW 8 15 993.7 - 0.0 - - - - - - -
01/05:00pm 16.1 WNW 9 16 993.2 - 0.0 - - - - - - -
01/04:30pm 15.9 WNW 7 14 993.0 - 0.0 - - - - - - -
01/04:00pm 16.8 WNW 7 16 992.9 - 0.0 - - - - - - -
01/03:30pm 16.1 NW 5 10 992.6 - 0.0 - - - - - - -
01/03:00pm 14.9 WNW 6 12 992.6 - 0.0 - - - - - - -
01/02:30pm 14.9 W 3 7 992.8 - 0.0 - - - - - - -
01/02:00pm 14.9 WNW 6 12 992.9 - 0.0 - - - - - - -
01/01:30pm 14.4 N 5 9 992.8 - 0.0 - - - - - - -
01/01:00pm 15.3 NNE 6 10 992.7 - 0.0 - - - - - - -
01/12:30pm 14.7 NNE 8 12 992.8 - 0.0 - - - - - - -
01/12:00pm 14.5 NE 7 11 993.1 - 0.0 - - - - - - -
01/11:30am 14.3 NNE 6 9 993.5 - 0.0 - - - - - - -
01/11:00am 13.9 NNE 6 9 993.8 - 0.0 - - - - - - -
01/10:30am 13.5 NNE 8 11 994.0 - 0.0 - - - - - - -
01/10:00am 13.8 NNE 8 14 994.4 - 0.0 - - - - - - -
01/09:30am 13.8 NNE 9 13 994.5 - 0.0 - - - - - - -
01/09:00am 13.5 NNE 8 13 994.6 - 0.0 - - - - - - -
01/08:30am 12.5 NNE 5 9 994.7 - 0.0 - - - - - - -
01/08:00am 11.7 NNE 3 6 994.7 - 0.0 - - - - - - -
01/07:30am 11.1 CALM 0 0 994.7 - 0.0 - - - - - - -
01/07:00am 9.9 NNE 2 4 994.6 - 0.0 - - - - - - -
01/06:30am 9.1 SE 2 3 994.4 - 0.0 - - - - - - -
01/06:00am 7.4 SE 2 2 994.4 - 0.0 - - - - - - -
01/05:30am 7.2 ESE 1 2 994.1 - 0.0 - - - - - - -
01/05:00am 6.9 CALM 0 3 993.8 - 0.0 - - - - - - -
01/04:30am 6.0 NNW 2 3 993.6 - 0.0 - - - - - - -
01/04:00am 6.2 NW 2 4 993.4 - 0.0 - - - - - - -
01/03:30am 6.3 WNW 5 6 993.4 - 0.0 - - - - - - -
01/03:00am 6.0 WNW 5 7 993.4 - 0.0 - - - - - - -
01/02:30am 6.6 NW 5 5 993.5 - 0.0 - - - - - - -
01/02:00am 7.4 WNW 5 5 993.7 - 0.0 - - - - - - -
01/01:30am 7.3 WNW 5 6 993.9 - 0.0 - - - - - - -
01/01:00am 7.5 WNW 3 4 994.2 - 0.0 - - - - - - -
01/12:30am 7.9 W 4 5 994.3 - 0.0 - - - - - - -
01/12:00am 7.9 W 4 4 994.3 - 0.0 - - - - - - -
 
Date/Time
EDT
Temp
°C
Wind Pressure Rain since
9am
mm
Weather Cloud Vis
km
Sea
Height
m
Swell
Dir  Spd
kts
Gust
kts
hPa Trend Height
m
Period
s
Dir
30/11:30pm 8.5 WNW 5 7 994.4 - 0.0 - - - - - - -
30/11:00pm 8.7 WNW 5 8 994.4 - 0.0 - - - - - - -
30/10:30pm 9.0 WNW 5 6 994.6 - 0.0 - - - - - - -
30/10:00pm 8.5 WNW 5 7 994.7 - 0.0 - - - - - - -
30/09:30pm 10.5 NNW 6 8 994.4 - 0.0 - - - - - - -
30/09:00pm 10.9 N 6 9 994.2 - 0.0 - - - - - - -
30/08:30pm 11.2 N 5 8 994.1 - 0.0 - - - - - - -
30/08:00pm 12.0 N 8 11 993.8 - 0.0 - - - - - - -
30/07:30pm 12.1 NNW 7 10 993.6 - 0.0 - - - - - - -
30/07:00pm 12.0 N 6 9 993.1 - 0.0 - - - - - - -
30/06:30pm 12.4 N 7 10 992.4 - 0.0 - - - - - - -
30/06:00pm 13.2 N 9 16 992.0 - 0.0 - - - - - - -
30/05:30pm 13.4 NNE 8 11 991.4 - 0.0 - - - - - - -
30/05:00pm 15.3 N 9 17 990.8 - 0.0 - - - - - - -
30/04:30pm 16.0 NNE 11 16 990.3 - 0.0 - - - - - - -
30/04:00pm 16.6 NNE 10 16 989.9 - 0.0 - - - - - - -
30/03:30pm 16.9 NNE 10 17 989.4 - 0.0 - - - - - - -
30/03:00pm 18.2 N 8 12 989.2 - 0.0 - - - - - - -
30/02:30pm 18.3 NNW 6 12 988.9 - 0.0 - - - - - - -
30/02:00pm 18.1 NNW 8 16 988.8 - 0.0 - - - - - - -
30/01:30pm 17.4 NNW 10 16 988.5 - 0.0 - - - - - - -
30/01:00pm 15.6 WNW 4 6 988.5 - 0.0 - - - - - - -
30/12:30pm 15.9 N 9 18 988.3 - 0.0 - - - - - - -
30/12:00pm 15.1 NNE 7 12 988.4 - 0.0 - - - - - - -
30/11:30am 14.7 NNE 5 9 988.2 - 0.0 - - - - - - -
30/11:00am 14.6 NNW 6 9 987.9 - 0.0 - - - - - - -
30/10:30am 14.6 N 6 11 987.9 - 0.0 - - - - - - -
30/10:00am 13.7 NNW 8 13 988.1 - 0.0 - - - - - - -
30/09:30am 13.0 NNW 10 17 987.8 - 0.0 - - - - - - -
30/09:00am 12.6 NW 6 10 987.4 - 46.2 - - - - - - -
30/08:30am 12.1 WNW 7 12 986.8 - 46.2 - - - - - - -
30/08:00am 10.8 WNW 8 14 986.8 - 46.2 - - - - - - -
30/07:30am 10.7 WNW 10 15 986.7 - 46.2 - - - - - - -
30/07:00am 11.2 W 8 14 987.1 - 46.2 - - - - - - -
30/06:30am 10.9 WNW 5 8 987.7 - 44.4 - - - - - - -
30/06:00am 11.3 WNW 5 8 988.3 - 41.4 Rain - - - - - -
30/05:30am 11.4 N 3 4 988.8 - 38.0 - - - - - - -
30/05:00am 11.7 NE 3 5 988.8 - 36.6 - - - - - - -
30/04:30am 11.7 E 3 14 989.3 - 34.6 - - - - - - -
30/04:00am 11.6 WNW 2 4 989.6 - 30.8 - - - - - - -
30/03:30am 11.6 CALM 0 1 989.7 - 29.0 - - - - - - -
30/03:00am 11.8 S 1 2 989.8 - 28.4 Recent precip. - - - - - -
30/02:30am 12.0 NE 2 5 990.1 - 28.4 - - - - - - -
30/02:00am 12.0 NE 4 5 990.9 - 28.2 - - - - - - -
30/01:30am 12.2 E 10 14 991.1 - 27.6 - - - - - - -
30/01:00am 12.5 ENE 12 16 991.9 - 27.4 - - - - - - -
30/12:30am 12.5 ENE 16 25 991.9 - 27.4 - - - - - - -
30/12:26am 12.6 ENE 15 25 992.0 - 27.4 - - - - - - -
30/12:00am 12.1 ENE 13 18 992.0 - 27.4 - - - - - - -
 
Date/Time
EDT
Temp
°C
Wind Pressure Rain since
9am
mm
Weather Cloud Vis
km
Sea
Height
m
Swell
Dir  Spd
kts
Gust
kts
hPa Trend Height
m
Period
s
Dir
29/11:30pm 11.6 NE 12 20 991.8 - 27.4 - - - - - - -
29/11:00pm 11.4 NE 11 17 991.9 - 27.4 - - - - - - -
29/10:30pm 12.2 E 18 25 992.0 - 26.4 - - - - - - -
29/10:20pm 11.9 E 11 24 992.2 - 26.0 - - - - - - -
29/10:00pm 11.2 E 4 8 992.8 - 24.2 - - - - - - -
29/09:30pm 11.0 NE 8 12 993.4 - 21.6 - - - - - - -
29/09:00pm 11.2 N 11 20 993.0 - 19.2 Rain - - - - - -
29/08:48pm 11.8 NE 27 47 992.1 - 18.8 - - - - - - -
29/08:45pm 11.8 ENE 29 47 991.6 - 18.8 - - - - - - -
29/08:39pm 12.2 E 27 47 991.3 - 18.8 - - - - - - -
29/08:30pm 12.2 ENE 20 34 992.0 - 18.4 - - - - - - -
29/08:00pm 12.3 ENE 21 33 992.7 - 8.0 - - - - - - -
29/07:30pm 12.5 ENE 26 39 992.6 - 5.4 - - - - - - -
29/07:00pm 12.7 ENE 27 37 991.7 - 4.4 - - - - - - -
29/06:30pm 12.5 ENE 25 35 991.3 - 4.4 - - - - - - -
29/06:00pm 12.5 ENE 29 41 990.7 - 4.2 Rain - - - - - -
29/05:30pm 12.4 E 26 37 991.7 - 3.4 - - - - - - -
29/05:02pm 12.5 ENE 23 33 992.6 - 2.4 - - - - - - -
29/05:00pm 12.5 ENE 24 33 992.6 - 2.4 - - - - - - -
29/04:33pm 12.7 ENE 22 34 992.8 - 1.8 - - - - - - -
29/04:30pm 12.7 ENE 22 31 992.9 - 1.8 - - - - - - -
29/04:04pm 12.9 ENE 22 32 993.1 - 1.0 - - - - - - -
29/04:00pm 12.9 ENE 22 31 993.1 - 1.0 - - - - - - -
29/03:30pm 13.2 ENE 24 35 992.8 - 0.8 - - - - - - -
29/03:00pm 13.2 ENE 25 37 993.0 - 0.6 Rain - - - - - -
29/02:30pm 13.5 ENE 25 35 993.2 - 0.4 - - - - - - -
29/02:00pm 13.9 ENE 23 33 993.6 - 0.2 - - - - - - -
29/01:30pm 14.2 ENE 25 35 993.9 - 0.2 - - - - - - -
29/01:00pm 14.1 ENE 24 36 994.1 - 0.2 - - - - - - -
29/12:30pm 14.1 ENE 24 34 994.4 - 0.2 - - - - - - -
29/12:02pm 14.4 ENE 25 36 994.6 - 0.2 - - - - - - -
29/12:00pm 14.4 ENE 24 33 994.6 - 0.2 - - - - - - -
29/11:31am 14.7 ENE 24 36 995.1 - 0.2 - - - - - - -
29/11:30am 14.8 ENE 24 33 995.1 - 0.2 - - - - - - -
29/11:01am 14.7 ENE 23 33 995.6 - 0.2 - - - - - - -
29/11:00am 14.7 ENE 24 33 995.6 - 0.2 - - - - - - -
29/10:46am 14.9 ENE 23 33 995.9 - 0.2 - - - - - - -
29/10:30am 14.4 ENE 23 33 996.0 - 0.2 - - - - - - -
29/10:03am 13.9 ENE 21 31 996.6 - 0.2 - - - - - - -
29/10:00am 13.8 ENE 20 29 996.8 - 0.2 - - - - - - -
29/09:30am 14.2 NE 20 29 997.3 - 0.0 - - - - - - -
29/09:20am 13.9 ENE 19 30 997.4 - 0.0 - - - - - - -
29/09:00am 14.1 NE 19 27 997.6 - 0.0 - - - - - - -
29/08:30am 14.3 NE 17 25 998.2 - 0.0 - - - - - - -
29/08:00am 14.1 NE 16 24 998.1 - 0.0 - - - - - - -
29/07:47am 14.1 NE 15 26 998.1 - 0.0 - - - - - - -
29/07:30am 14.1 NE 14 20 998.6 - 0.0 - - - - - - -
29/07:00am 13.8 NE 14 21 998.5 - 0.0 - - - - - - -
29/06:30am 13.6 NE 12 17 999.0 - 0.0 - - - - - - -
29/06:00am 13.4 NE 12 19 999.6 - 0.0 - - - - - - -
29/05:30am 13.3 NE 12 18 999.6 - 0.0 - - - - - - -
29/05:00am 13.1 NE 12 18 1000.1 - 0.0 - - - - - - -

Other Formats:

Comma delimited format used in spreadsheet applications
http://www.bom.gov.au/fwo/IDT60701/IDT60701.94987.axf

JavaScript Object Notation format (JSON) in row-major order
http://www.bom.gov.au/fwo/IDT60701/IDT60701.94987.json